sensor_id;sensor_type;location;lat;lon;timestamp;P1;durP1;ratioP1;P2;durP2;ratioP2
71814;SDS011;59659;41.520;23.794;2024-01-06T00:01:11;29.73;;;14.32;;
71814;SDS011;59659;41.520;23.794;2024-01-06T00:02:23;37.05;;;16.75;;
71814;SDS011;59659;41.520;23.794;2024-01-06T00:03:35;52.22;;;21.75;;
71814;SDS011;59659;41.520;23.794;2024-01-06T00:04:46;39.83;;;19.10;;
71814;SDS011;59659;41.520;23.794;2024-01-06T00:05:58;46.28;;;20.95;;
71814;SDS011;59659;41.520;23.794;2024-01-06T00:07:11;42.47;;;18.50;;
71814;SDS011;59659;41.520;23.794;2024-01-06T00:08:25;47.22;;;19.05;;
71814;SDS011;59659;41.520;23.794;2024-01-06T00:09:37;53.50;;;20.77;;
71814;SDS011;59659;41.520;23.794;2024-01-06T00:10:49;57.78;;;25.13;;
71814;SDS011;59659;41.520;23.794;2024-01-06T00:12:00;49.47;;;22.90;;
71814;SDS011;59659;41.520;23.794;2024-01-06T00:13:13;58.90;;;22.55;;
71814;SDS011;59659;41.520;23.794;2024-01-06T00:14:25;42.63;;;19.88;;
71814;SDS011;59659;41.520;23.794;2024-01-06T00:15:36;56.67;;;22.35;;
71814;SDS011;59659;41.520;23.794;2024-01-06T00:16:48;40.38;;;19.83;;
71814;SDS011;59659;41.520;23.794;2024-01-06T00:18:00;51.20;;;22.23;;
71814;SDS011;59659;41.520;23.794;2024-01-06T00:19:12;51.00;;;20.98;;
71814;SDS011;59659;41.520;23.794;2024-01-06T00:20:24;42.63;;;17.90;;
71814;SDS011;59659;41.520;23.794;2024-01-06T00:21:35;54.92;;;17.02;;
71814;SDS011;59659;41.520;23.794;2024-01-06T00:22:47;42.83;;;19.25;;
71814;SDS011;59659;41.520;23.794;2024-01-06T00:23:58;52.80;;;19.40;;
71814;SDS011;59659;41.520;23.794;2024-01-06T00:25:10;64.95;;;21.92;;
71814;SDS011;59659;41.520;23.794;2024-01-06T00:26:21;48.75;;;21.27;;
71814;SDS011;59659;41.520;23.794;2024-01-06T00:27:33;40.05;;;18.15;;
71814;SDS011;59659;41.520;23.794;2024-01-06T00:28:44;47.08;;;19.33;;
71814;SDS011;59659;41.520;23.794;2024-01-06T00:29:56;55.05;;;18.25;;
71814;SDS011;59659;41.520;23.794;2024-01-06T00:31:07;71.30;;;30.25;;
71814;SDS011;59659;41.520;23.794;2024-01-06T00:32:19;63.47;;;28.35;;
71814;SDS011;59659;41.520;23.794;2024-01-06T00:33:31;48.72;;;22.30;;
71814;SDS011;59659;41.520;23.794;2024-01-06T00:34:43;58.35;;;21.85;;
71814;SDS011;59659;41.520;23.794;2024-01-06T00:35:54;49.28;;;19.48;;
71814;SDS011;59659;41.520;23.794;2024-01-06T00:37:07;52.53;;;19.77;;
71814;SDS011;59659;41.520;23.794;2024-01-06T00:38:18;35.42;;;17.73;;
71814;SDS011;59659;41.520;23.794;2024-01-06T00:39:31;40.05;;;17.40;;
71814;SDS011;59659;41.520;23.794;2024-01-06T00:40:43;38.97;;;17.33;;
71814;SDS011;59659;41.520;23.794;2024-01-06T00:41:54;29.48;;;14.80;;
71814;SDS011;59659;41.520;23.794;2024-01-06T00:43:06;28.17;;;13.45;;
71814;SDS011;59659;41.520;23.794;2024-01-06T00:44:17;40.38;;;15.85;;
71814;SDS011;59659;41.520;23.794;2024-01-06T00:45:29;40.90;;;13.68;;
71814;SDS011;59659;41.520;23.794;2024-01-06T00:46:42;37.30;;;12.68;;
71814;SDS011;59659;41.520;23.794;2024-01-06T00:47:53;28.23;;;14.80;;
71814;SDS011;59659;41.520;23.794;2024-01-06T00:49:05;21.40;;;13.50;;
71814;SDS011;59659;41.520;23.794;2024-01-06T00:50:17;25.92;;;12.68;;
71814;SDS011;59659;41.520;23.794;2024-01-06T00:51:30;22.95;;;11.55;;
71814;SDS011;59659;41.520;23.794;2024-01-06T00:52:42;35.53;;;14.13;;
71814;SDS011;59659;41.520;23.794;2024-01-06T00:53:54;21.33;;;11.95;;
71814;SDS011;59659;41.520;23.794;2024-01-06T00:55:05;22.23;;;12.93;;
71814;SDS011;59659;41.520;23.794;2024-01-06T00:56:17;21.15;;;11.43;;
71814;SDS011;59659;41.520;23.794;2024-01-06T00:57:28;35.75;;;13.45;;
71814;SDS011;59659;41.520;23.794;2024-01-06T00:58:40;33.58;;;15.75;;
71814;SDS011;59659;41.520;23.794;2024-01-06T00:59:52;32.60;;;16.85;;
71814;SDS011;59659;41.520;23.794;2024-01-06T01:01:03;32.20;;;16.25;;
71814;SDS011;59659;41.520;23.794;2024-01-06T01:02:15;28.27;;;15.13;;
71814;SDS011;59659;41.520;23.794;2024-01-06T01:03:26;30.42;;;15.43;;
71814;SDS011;59659;41.520;23.794;2024-01-06T01:04:38;38.45;;;16.80;;
71814;SDS011;59659;41.520;23.794;2024-01-06T01:05:50;38.58;;;17.75;;
71814;SDS011;59659;41.520;23.794;2024-01-06T01:07:01;43.15;;;15.25;;
71814;SDS011;59659;41.520;23.794;2024-01-06T01:08:13;37.05;;;16.48;;
71814;SDS011;59659;41.520;23.794;2024-01-06T01:09:24;63.70;;;18.73;;
71814;SDS011;59659;41.520;23.794;2024-01-06T01:10:36;35.65;;;15.45;;
71814;SDS011;59659;41.520;23.794;2024-01-06T01:11:47;46.13;;;18.73;;
71814;SDS011;59659;41.520;23.794;2024-01-06T01:12:59;44.35;;;17.05;;
71814;SDS011;59659;41.520;23.794;2024-01-06T01:14:11;33.40;;;15.82;;
71814;SDS011;59659;41.520;23.794;2024-01-06T01:15:22;28.52;;;15.32;;
71814;SDS011;59659;41.520;23.794;2024-01-06T01:16:34;43.70;;;15.70;;
71814;SDS011;59659;41.520;23.794;2024-01-06T01:17:45;28.77;;;13.95;;
71814;SDS011;59659;41.520;23.794;2024-01-06T01:18:57;52.30;;;18.08;;
71814;SDS011;59659;41.520;23.794;2024-01-06T01:20:09;40.67;;;16.00;;
71814;SDS011;59659;41.520;23.794;2024-01-06T01:21:20;52.78;;;17.60;;
71814;SDS011;59659;41.520;23.794;2024-01-06T01:22:32;38.83;;;15.95;;
71814;SDS011;59659;41.520;23.794;2024-01-06T01:23:44;32.53;;;15.70;;
71814;SDS011;59659;41.520;23.794;2024-01-06T01:24:55;58.05;;;19.38;;
71814;SDS011;59659;41.520;23.794;2024-01-06T01:26:07;45.85;;;18.13;;
71814;SDS011;59659;41.520;23.794;2024-01-06T01:27:18;56.03;;;15.63;;
71814;SDS011;59659;41.520;23.794;2024-01-06T01:28:30;46.70;;;16.27;;
71814;SDS011;59659;41.520;23.794;2024-01-06T01:29:41;48.47;;;16.85;;
71814;SDS011;59659;41.520;23.794;2024-01-06T01:30:53;50.70;;;21.08;;
71814;SDS011;59659;41.520;23.794;2024-01-06T01:32:05;85.60;;;19.80;;
71814;SDS011;59659;41.520;23.794;2024-01-06T01:33:17;46.90;;;18.15;;
71814;SDS011;59659;41.520;23.794;2024-01-06T01:34:28;49.38;;;17.70;;
71814;SDS011;59659;41.520;23.794;2024-01-06T01:35:40;45.55;;;16.50;;
71814;SDS011;59659;41.520;23.794;2024-01-06T01:36:52;47.08;;;16.00;;
71814;SDS011;59659;41.520;23.794;2024-01-06T01:38:03;40.13;;;16.60;;
71814;SDS011;59659;41.520;23.794;2024-01-06T01:39:15;42.63;;;18.48;;
71814;SDS011;59659;41.520;23.794;2024-01-06T01:40:27;48.55;;;16.42;;
71814;SDS011;59659;41.520;23.794;2024-01-06T01:41:39;51.40;;;18.73;;
71814;SDS011;59659;41.520;23.794;2024-01-06T01:42:50;57.22;;;20.15;;
71814;SDS011;59659;41.520;23.794;2024-01-06T01:44:03;67.15;;;23.80;;
71814;SDS011;59659;41.520;23.794;2024-01-06T01:45:14;56.85;;;22.98;;
71814;SDS011;59659;41.520;23.794;2024-01-06T01:46:26;47.47;;;20.33;;
71814;SDS011;59659;41.520;23.794;2024-01-06T01:47:38;43.85;;;18.75;;
71814;SDS011;59659;41.520;23.794;2024-01-06T01:48:51;36.53;;;18.27;;
71814;SDS011;59659;41.520;23.794;2024-01-06T01:50:03;39.00;;;17.35;;
71814;SDS011;59659;41.520;23.794;2024-01-06T01:51:15;30.85;;;14.13;;
71814;SDS011;59659;41.520;23.794;2024-01-06T01:52:26;43.17;;;16.77;;
71814;SDS011;59659;41.520;23.794;2024-01-06T01:53:38;52.05;;;17.45;;
71814;SDS011;59659;41.520;23.794;2024-01-06T01:54:50;42.05;;;16.85;;
71814;SDS011;59659;41.520;23.794;2024-01-06T01:56:03;37.45;;;14.85;;
71814;SDS011;59659;41.520;23.794;2024-01-06T01:57:15;36.33;;;15.70;;
71814;SDS011;59659;41.520;23.794;2024-01-06T01:58:27;28.70;;;14.13;;
71814;SDS011;59659;41.520;23.794;2024-01-06T01:59:39;25.00;;;13.07;;
71814;SDS011;59659;41.520;23.794;2024-01-06T02:00:51;31.13;;;13.88;;
71814;SDS011;59659;41.520;23.794;2024-01-06T02:02:02;31.58;;;14.80;;
71814;SDS011;59659;41.520;23.794;2024-01-06T02:03:14;29.92;;;13.45;;
71814;SDS011;59659;41.520;23.794;2024-01-06T02:04:27;22.00;;;13.85;;
71814;SDS011;59659;41.520;23.794;2024-01-06T02:05:39;44.13;;;17.40;;
71814;SDS011;59659;41.520;23.794;2024-01-06T02:06:50;32.67;;;15.55;;
71814;SDS011;59659;41.520;23.794;2024-01-06T02:08:02;21.40;;;13.13;;
71814;SDS011;59659;41.520;23.794;2024-01-06T02:09:13;27.55;;;13.98;;
71814;SDS011;59659;41.520;23.794;2024-01-06T02:10:25;24.02;;;12.85;;
71814;SDS011;59659;41.520;23.794;2024-01-06T02:11:37;35.90;;;17.45;;
71814;SDS011;59659;41.520;23.794;2024-01-06T02:12:49;37.17;;;16.60;;
71814;SDS011;59659;41.520;23.794;2024-01-06T02:14:03;27.90;;;16.17;;
71814;SDS011;59659;41.520;23.794;2024-01-06T02:15:14;44.53;;;18.08;;
71814;SDS011;59659;41.520;23.794;2024-01-06T02:16:26;42.83;;;17.48;;
71814;SDS011;59659;41.520;23.794;2024-01-06T02:17:38;43.70;;;18.70;;
71814;SDS011;59659;41.520;23.794;2024-01-06T02:18:51;42.97;;;17.27;;
71814;SDS011;59659;41.520;23.794;2024-01-06T02:20:03;36.15;;;15.95;;
71814;SDS011;59659;41.520;23.794;2024-01-06T02:21:15;38.90;;;16.50;;
71814;SDS011;59659;41.520;23.794;2024-01-06T02:22:27;35.88;;;15.38;;
71814;SDS011;59659;41.520;23.794;2024-01-06T02:23:38;29.65;;;15.90;;
71814;SDS011;59659;41.520;23.794;2024-01-06T02:24:50;30.60;;;15.57;;
71814;SDS011;59659;41.520;23.794;2024-01-06T02:26:01;34.03;;;14.63;;
71814;SDS011;59659;41.520;23.794;2024-01-06T02:27:14;27.25;;;15.40;;
71814;SDS011;59659;41.520;23.794;2024-01-06T02:28:25;45.10;;;13.95;;
71814;SDS011;59659;41.520;23.794;2024-01-06T02:29:37;30.05;;;12.63;;
71814;SDS011;59659;41.520;23.794;2024-01-06T02:30:48;22.73;;;12.70;;
71814;SDS011;59659;41.520;23.794;2024-01-06T02:32:00;21.70;;;10.48;;
71814;SDS011;59659;41.520;23.794;2024-01-06T02:33:12;24.60;;;11.68;;
71814;SDS011;59659;41.520;23.794;2024-01-06T02:34:23;23.65;;;11.68;;
71814;SDS011;59659;41.520;23.794;2024-01-06T02:35:35;26.92;;;12.35;;
71814;SDS011;59659;41.520;23.794;2024-01-06T02:36:47;20.95;;;11.98;;
71814;SDS011;59659;41.520;23.794;2024-01-06T02:37:59;20.63;;;11.70;;
71814;SDS011;59659;41.520;23.794;2024-01-06T02:39:10;31.70;;;12.05;;
71814;SDS011;59659;41.520;23.794;2024-01-06T02:40:22;27.52;;;11.45;;
71814;SDS011;59659;41.520;23.794;2024-01-06T02:41:33;35.80;;;12.00;;
71814;SDS011;59659;41.520;23.794;2024-01-06T02:42:45;22.92;;;12.38;;
71814;SDS011;59659;41.520;23.794;2024-01-06T02:43:56;25.98;;;12.27;;
71814;SDS011;59659;41.520;23.794;2024-01-06T02:45:08;32.33;;;13.80;;
71814;SDS011;59659;41.520;23.794;2024-01-06T02:46:23;23.13;;;11.85;;
71814;SDS011;59659;41.520;23.794;2024-01-06T02:47:34;24.15;;;11.38;;
71814;SDS011;59659;41.520;23.794;2024-01-06T02:48:46;16.52;;;9.00;;
71814;SDS011;59659;41.520;23.794;2024-01-06T02:49:58;8.65;;;6.50;;
71814;SDS011;59659;41.520;23.794;2024-01-06T02:51:10;11.57;;;6.90;;
71814;SDS011;59659;41.520;23.794;2024-01-06T02:52:22;14.05;;;7.55;;
71814;SDS011;59659;41.520;23.794;2024-01-06T02:53:34;9.23;;;6.53;;
71814;SDS011;59659;41.520;23.794;2024-01-06T02:54:45;13.07;;;7.32;;
71814;SDS011;59659;41.520;23.794;2024-01-06T02:55:57;16.08;;;9.73;;
71814;SDS011;59659;41.520;23.794;2024-01-06T02:57:08;24.90;;;9.02;;
71814;SDS011;59659;41.520;23.794;2024-01-06T02:58:20;31.75;;;11.25;;
71814;SDS011;59659;41.520;23.794;2024-01-06T02:59:31;26.98;;;12.00;;
71814;SDS011;59659;41.520;23.794;2024-01-06T03:00:45;18.30;;;11.45;;
71814;SDS011;59659;41.520;23.794;2024-01-06T03:01:56;43.35;;;14.60;;
71814;SDS011;59659;41.520;23.794;2024-01-06T03:03:08;23.73;;;13.07;;
71814;SDS011;59659;41.520;23.794;2024-01-06T03:04:20;32.47;;;15.35;;
71814;SDS011;59659;41.520;23.794;2024-01-06T03:05:31;27.27;;;13.13;;
71814;SDS011;59659;41.520;23.794;2024-01-06T03:06:43;28.60;;;14.52;;
71814;SDS011;59659;41.520;23.794;2024-01-06T03:07:55;28.13;;;14.05;;
71814;SDS011;59659;41.520;23.794;2024-01-06T03:09:06;28.58;;;13.70;;
71814;SDS011;59659;41.520;23.794;2024-01-06T03:10:18;19.85;;;11.27;;
71814;SDS011;59659;41.520;23.794;2024-01-06T03:11:30;41.78;;;14.25;;
71814;SDS011;59659;41.520;23.794;2024-01-06T03:12:42;30.35;;;12.13;;
71814;SDS011;59659;41.520;23.794;2024-01-06T03:13:53;34.28;;;13.40;;
71814;SDS011;59659;41.520;23.794;2024-01-06T03:15:05;25.88;;;12.00;;
71814;SDS011;59659;41.520;23.794;2024-01-06T03:16:16;22.65;;;11.82;;
71814;SDS011;59659;41.520;23.794;2024-01-06T03:17:28;22.35;;;12.73;;
71814;SDS011;59659;41.520;23.794;2024-01-06T03:18:40;32.25;;;11.43;;
71814;SDS011;59659;41.520;23.794;2024-01-06T03:19:52;26.23;;;10.70;;
71814;SDS011;59659;41.520;23.794;2024-01-06T03:21:03;26.58;;;11.43;;
71814;SDS011;59659;41.520;23.794;2024-01-06T03:22:15;22.58;;;11.18;;
71814;SDS011;59659;41.520;23.794;2024-01-06T03:23:26;24.15;;;11.68;;
71814;SDS011;59659;41.520;23.794;2024-01-06T03:24:39;23.60;;;11.40;;
71814;SDS011;59659;41.520;23.794;2024-01-06T03:25:51;34.90;;;12.77;;
71814;SDS011;59659;41.520;23.794;2024-01-06T03:27:03;45.08;;;16.02;;
71814;SDS011;59659;41.520;23.794;2024-01-06T03:28:14;25.35;;;13.85;;
71814;SDS011;59659;41.520;23.794;2024-01-06T03:29:26;18.75;;;10.23;;
71814;SDS011;59659;41.520;23.794;2024-01-06T03:30:37;27.58;;;9.50;;
71814;SDS011;59659;41.520;23.794;2024-01-06T03:31:49;22.98;;;10.43;;
71814;SDS011;59659;41.520;23.794;2024-01-06T03:33:00;22.70;;;10.07;;
71814;SDS011;59659;41.520;23.794;2024-01-06T03:34:12;16.92;;;8.15;;
71814;SDS011;59659;41.520;23.794;2024-01-06T03:35:24;20.77;;;10.82;;
71814;SDS011;59659;41.520;23.794;2024-01-06T03:36:35;30.00;;;11.57;;
71814;SDS011;59659;41.520;23.794;2024-01-06T03:37:47;28.77;;;12.10;;
71814;SDS011;59659;41.520;23.794;2024-01-06T03:38:59;21.80;;;11.18;;
71814;SDS011;59659;41.520;23.794;2024-01-06T03:40:10;30.27;;;12.55;;
71814;SDS011;59659;41.520;23.794;2024-01-06T03:41:22;24.63;;;14.00;;
71814;SDS011;59659;41.520;23.794;2024-01-06T03:42:33;29.95;;;12.65;;
71814;SDS011;59659;41.520;23.794;2024-01-06T03:43:45;30.92;;;12.15;;
71814;SDS011;59659;41.520;23.794;2024-01-06T03:44:57;21.48;;;12.50;;
71814;SDS011;59659;41.520;23.794;2024-01-06T03:46:08;26.88;;;12.00;;
71814;SDS011;59659;41.520;23.794;2024-01-06T03:47:20;33.10;;;12.70;;
71814;SDS011;59659;41.520;23.794;2024-01-06T03:48:32;24.13;;;13.00;;
71814;SDS011;59659;41.520;23.794;2024-01-06T03:49:44;27.00;;;13.63;;
71814;SDS011;59659;41.520;23.794;2024-01-06T03:50:56;29.20;;;13.98;;
71814;SDS011;59659;41.520;23.794;2024-01-06T03:52:07;33.17;;;14.30;;
71814;SDS011;59659;41.520;23.794;2024-01-06T03:53:19;24.85;;;12.45;;
71814;SDS011;59659;41.520;23.794;2024-01-06T03:54:33;21.23;;;13.10;;
71814;SDS011;59659;41.520;23.794;2024-01-06T03:55:44;26.00;;;12.15;;
71814;SDS011;59659;41.520;23.794;2024-01-06T03:56:56;28.23;;;13.27;;
71814;SDS011;59659;41.520;23.794;2024-01-06T03:58:07;34.60;;;13.40;;
71814;SDS011;59659;41.520;23.794;2024-01-06T03:59:19;21.60;;;13.48;;
71814;SDS011;59659;41.520;23.794;2024-01-06T04:00:31;22.55;;;12.90;;
71814;SDS011;59659;41.520;23.794;2024-01-06T04:01:42;23.08;;;13.18;;
71814;SDS011;59659;41.520;23.794;2024-01-06T04:02:54;24.27;;;13.93;;
71814;SDS011;59659;41.520;23.794;2024-01-06T04:04:07;29.75;;;11.70;;
71814;SDS011;59659;41.520;23.794;2024-01-06T04:05:18;24.23;;;11.23;;
71814;SDS011;59659;41.520;23.794;2024-01-06T04:06:30;23.98;;;11.75;;
71814;SDS011;59659;41.520;23.794;2024-01-06T04:07:43;22.50;;;10.98;;
71814;SDS011;59659;41.520;23.794;2024-01-06T04:08:54;24.48;;;11.55;;
71814;SDS011;59659;41.520;23.794;2024-01-06T04:10:06;28.38;;;14.88;;
71814;SDS011;59659;41.520;23.794;2024-01-06T04:11:18;21.52;;;13.20;;
71814;SDS011;59659;41.520;23.794;2024-01-06T04:12:29;23.92;;;12.40;;
71814;SDS011;59659;41.520;23.794;2024-01-06T04:13:41;21.42;;;12.07;;
71814;SDS011;59659;41.520;23.794;2024-01-06T04:14:52;26.50;;;13.73;;
71814;SDS011;59659;41.520;23.794;2024-01-06T04:16:04;29.65;;;10.93;;
71814;SDS011;59659;41.520;23.794;2024-01-06T04:17:16;29.02;;;11.20;;
71814;SDS011;59659;41.520;23.794;2024-01-06T04:18:28;27.35;;;10.88;;
71814;SDS011;59659;41.520;23.794;2024-01-06T04:19:39;20.77;;;12.90;;
71814;SDS011;59659;41.520;23.794;2024-01-06T04:20:51;27.25;;;11.52;;
71814;SDS011;59659;41.520;23.794;2024-01-06T04:22:03;23.27;;;10.68;;
71814;SDS011;59659;41.520;23.794;2024-01-06T04:23:14;26.27;;;11.32;;
71814;SDS011;59659;41.520;23.794;2024-01-06T04:24:26;37.65;;;13.93;;
71814;SDS011;59659;41.520;23.794;2024-01-06T04:25:38;34.40;;;12.15;;
71814;SDS011;59659;41.520;23.794;2024-01-06T04:26:49;25.48;;;11.30;;
71814;SDS011;59659;41.520;23.794;2024-01-06T04:28:01;40.38;;;13.38;;
71814;SDS011;59659;41.520;23.794;2024-01-06T04:29:12;33.85;;;12.45;;
71814;SDS011;59659;41.520;23.794;2024-01-06T04:30:24;27.42;;;11.00;;
71814;SDS011;59659;41.520;23.794;2024-01-06T04:31:37;20.55;;;12.23;;
71814;SDS011;59659;41.520;23.794;2024-01-06T04:32:49;16.15;;;9.00;;
71814;SDS011;59659;41.520;23.794;2024-01-06T04:34:00;25.55;;;10.88;;
71814;SDS011;59659;41.520;23.794;2024-01-06T04:35:12;21.27;;;11.00;;
71814;SDS011;59659;41.520;23.794;2024-01-06T04:36:24;18.83;;;10.57;;
71814;SDS011;59659;41.520;23.794;2024-01-06T04:37:35;25.95;;;12.23;;
71814;SDS011;59659;41.520;23.794;2024-01-06T04:38:47;27.80;;;13.50;;
71814;SDS011;59659;41.520;23.794;2024-01-06T04:39:59;36.53;;;15.40;;
71814;SDS011;59659;41.520;23.794;2024-01-06T04:41:10;29.95;;;12.77;;
71814;SDS011;59659;41.520;23.794;2024-01-06T04:42:22;27.85;;;14.52;;
71814;SDS011;59659;41.520;23.794;2024-01-06T04:43:34;31.17;;;17.23;;
71814;SDS011;59659;41.520;23.794;2024-01-06T04:44:45;53.90;;;19.10;;
71814;SDS011;59659;41.520;23.794;2024-01-06T04:45:57;28.85;;;15.27;;
71814;SDS011;59659;41.520;23.794;2024-01-06T04:47:09;41.78;;;21.67;;
71814;SDS011;59659;41.520;23.794;2024-01-06T04:48:20;45.72;;;18.50;;
71814;SDS011;59659;41.520;23.794;2024-01-06T04:49:32;34.60;;;18.77;;
71814;SDS011;59659;41.520;23.794;2024-01-06T04:50:44;35.25;;;21.42;;
71814;SDS011;59659;41.520;23.794;2024-01-06T04:51:55;42.05;;;21.38;;
71814;SDS011;59659;41.520;23.794;2024-01-06T04:53:07;38.00;;;18.13;;
71814;SDS011;59659;41.520;23.794;2024-01-06T04:54:19;34.03;;;16.85;;
71814;SDS011;59659;41.520;23.794;2024-01-06T04:55:30;35.63;;;17.77;;
71814;SDS011;59659;41.520;23.794;2024-01-06T04:56:42;37.50;;;19.13;;
71814;SDS011;59659;41.520;23.794;2024-01-06T04:57:53;30.40;;;17.00;;
71814;SDS011;59659;41.520;23.794;2024-01-06T04:59:05;32.78;;;16.08;;
71814;SDS011;59659;41.520;23.794;2024-01-06T05:00:17;38.45;;;19.75;;
71814;SDS011;59659;41.520;23.794;2024-01-06T05:01:29;32.60;;;15.68;;
71814;SDS011;59659;41.520;23.794;2024-01-06T05:02:41;36.88;;;20.70;;
71814;SDS011;59659;41.520;23.794;2024-01-06T05:03:53;42.22;;;19.88;;
71814;SDS011;59659;41.520;23.794;2024-01-06T05:05:04;39.20;;;20.33;;
71814;SDS011;59659;41.520;23.794;2024-01-06T05:06:16;43.60;;;18.52;;
71814;SDS011;59659;41.520;23.794;2024-01-06T05:07:28;46.63;;;15.73;;
71814;SDS011;59659;41.520;23.794;2024-01-06T05:08:39;21.38;;;12.15;;
71814;SDS011;59659;41.520;23.794;2024-01-06T05:09:56;28.65;;;13.50;;
71814;SDS011;59659;41.520;23.794;2024-01-06T05:11:07;22.80;;;11.80;;
71814;SDS011;59659;41.520;23.794;2024-01-06T05:12:20;23.75;;;12.90;;
71814;SDS011;59659;41.520;23.794;2024-01-06T05:13:32;23.85;;;12.27;;
71814;SDS011;59659;41.520;23.794;2024-01-06T05:14:43;20.05;;;11.07;;
71814;SDS011;59659;41.520;23.794;2024-01-06T05:15:55;19.27;;;11.30;;
71814;SDS011;59659;41.520;23.794;2024-01-06T05:17:07;21.67;;;10.23;;
71814;SDS011;59659;41.520;23.794;2024-01-06T05:18:20;26.33;;;12.52;;
71814;SDS011;59659;41.520;23.794;2024-01-06T05:19:32;23.55;;;14.18;;
71814;SDS011;59659;41.520;23.794;2024-01-06T05:20:44;21.02;;;12.77;;
71814;SDS011;59659;41.520;23.794;2024-01-06T05:21:55;19.88;;;10.27;;
71814;SDS011;59659;41.520;23.794;2024-01-06T05:23:07;19.20;;;9.75;;
71814;SDS011;59659;41.520;23.794;2024-01-06T05:24:18;28.08;;;12.85;;
71814;SDS011;59659;41.520;23.794;2024-01-06T05:25:30;22.58;;;11.18;;
71814;SDS011;59659;41.520;23.794;2024-01-06T05:26:42;28.88;;;13.80;;
71814;SDS011;59659;41.520;23.794;2024-01-06T05:27:53;26.95;;;11.75;;
71814;SDS011;59659;41.520;23.794;2024-01-06T05:29:05;25.75;;;13.90;;
71814;SDS011;59659;41.520;23.794;2024-01-06T05:30:17;24.08;;;13.43;;
71814;SDS011;59659;41.520;23.794;2024-01-06T05:31:29;21.55;;;12.65;;
71814;SDS011;59659;41.520;23.794;2024-01-06T05:32:41;30.20;;;15.60;;
71814;SDS011;59659;41.520;23.794;2024-01-06T05:33:52;25.58;;;13.77;;
71814;SDS011;59659;41.520;23.794;2024-01-06T05:35:04;24.17;;;14.27;;
71814;SDS011;59659;41.520;23.794;2024-01-06T05:36:18;23.13;;;12.32;;
71814;SDS011;59659;41.520;23.794;2024-01-06T05:37:31;23.42;;;11.25;;
71814;SDS011;59659;41.520;23.794;2024-01-06T05:38:42;26.40;;;11.40;;
71814;SDS011;59659;41.520;23.794;2024-01-06T05:39:54;19.92;;;10.93;;
71814;SDS011;59659;41.520;23.794;2024-01-06T05:41:06;24.83;;;12.45;;
71814;SDS011;59659;41.520;23.794;2024-01-06T05:42:17;21.02;;;10.25;;
71814;SDS011;59659;41.520;23.794;2024-01-06T05:43:29;19.40;;;9.35;;
71814;SDS011;59659;41.520;23.794;2024-01-06T05:44:40;27.50;;;13.20;;
71814;SDS011;59659;41.520;23.794;2024-01-06T05:45:52;25.55;;;11.77;;
71814;SDS011;59659;41.520;23.794;2024-01-06T05:47:04;28.73;;;13.65;;
71814;SDS011;59659;41.520;23.794;2024-01-06T05:48:15;30.50;;;13.98;;
71814;SDS011;59659;41.520;23.794;2024-01-06T05:49:27;20.08;;;9.65;;
71814;SDS011;59659;41.520;23.794;2024-01-06T05:50:39;19.10;;;10.55;;
71814;SDS011;59659;41.520;23.794;2024-01-06T05:51:51;15.90;;;10.10;;
71814;SDS011;59659;41.520;23.794;2024-01-06T05:53:02;23.75;;;12.27;;
71814;SDS011;59659;41.520;23.794;2024-01-06T05:54:14;30.77;;;14.07;;
71814;SDS011;59659;41.520;23.794;2024-01-06T05:55:25;26.13;;;12.43;;
71814;SDS011;59659;41.520;23.794;2024-01-06T05:56:37;28.30;;;14.23;;
71814;SDS011;59659;41.520;23.794;2024-01-06T05:57:48;30.83;;;14.43;;
71814;SDS011;59659;41.520;23.794;2024-01-06T05:59:00;29.02;;;13.90;;
71814;SDS011;59659;41.520;23.794;2024-01-06T06:00:12;31.45;;;13.25;;
71814;SDS011;59659;41.520;23.794;2024-01-06T06:01:25;40.50;;;19.00;;
71814;SDS011;59659;41.520;23.794;2024-01-06T06:02:37;35.65;;;18.35;;
71814;SDS011;59659;41.520;23.794;2024-01-06T06:03:48;37.65;;;16.88;;
71814;SDS011;59659;41.520;23.794;2024-01-06T06:05:01;30.98;;;16.85;;
71814;SDS011;59659;41.520;23.794;2024-01-06T06:06:13;45.10;;;18.05;;
71814;SDS011;59659;41.520;23.794;2024-01-06T06:07:24;31.92;;;14.98;;
71814;SDS011;59659;41.520;23.794;2024-01-06T06:08:36;33.88;;;15.65;;
71814;SDS011;59659;41.520;23.794;2024-01-06T06:09:47;32.35;;;17.17;;
71814;SDS011;59659;41.520;23.794;2024-01-06T06:10:59;36.97;;;17.08;;
71814;SDS011;59659;41.520;23.794;2024-01-06T06:12:22;34.78;;;17.30;;
71814;SDS011;59659;41.520;23.794;2024-01-06T06:13:33;46.67;;;22.92;;
71814;SDS011;59659;41.520;23.794;2024-01-06T06:14:45;41.75;;;21.23;;
71814;SDS011;59659;41.520;23.794;2024-01-06T06:15:56;36.92;;;18.77;;
71814;SDS011;59659;41.520;23.794;2024-01-06T06:17:09;33.33;;;17.50;;
71814;SDS011;59659;41.520;23.794;2024-01-06T06:18:21;25.13;;;13.70;;
71814;SDS011;59659;41.520;23.794;2024-01-06T06:19:32;26.02;;;13.30;;
71814;SDS011;59659;41.520;23.794;2024-01-06T06:20:44;28.45;;;15.10;;
71814;SDS011;59659;41.520;23.794;2024-01-06T06:21:56;22.88;;;13.07;;
71814;SDS011;59659;41.520;23.794;2024-01-06T06:23:07;21.98;;;13.02;;
71814;SDS011;59659;41.520;23.794;2024-01-06T06:24:19;31.15;;;16.35;;
71814;SDS011;59659;41.520;23.794;2024-01-06T06:25:30;30.40;;;14.63;;
71814;SDS011;59659;41.520;23.794;2024-01-06T06:26:42;30.50;;;15.43;;
71814;SDS011;59659;41.520;23.794;2024-01-06T06:27:54;31.67;;;16.75;;
71814;SDS011;59659;41.520;23.794;2024-01-06T06:29:05;34.15;;;18.75;;
71814;SDS011;59659;41.520;23.794;2024-01-06T06:30:17;40.72;;;21.50;;
71814;SDS011;59659;41.520;23.794;2024-01-06T06:31:28;44.85;;;22.98;;
71814;SDS011;59659;41.520;23.794;2024-01-06T06:32:40;37.83;;;22.10;;
71814;SDS011;59659;41.520;23.794;2024-01-06T06:33:51;35.70;;;20.40;;
71814;SDS011;59659;41.520;23.794;2024-01-06T06:35:03;46.25;;;22.90;;
71814;SDS011;59659;41.520;23.794;2024-01-06T06:36:15;59.17;;;25.23;;
71814;SDS011;59659;41.520;23.794;2024-01-06T06:37:27;67.05;;;32.72;;
71814;SDS011;59659;41.520;23.794;2024-01-06T06:38:38;80.85;;;35.05;;
71814;SDS011;59659;41.520;23.794;2024-01-06T06:39:50;58.63;;;33.25;;
71814;SDS011;59659;41.520;23.794;2024-01-06T06:41:01;63.22;;;27.35;;
71814;SDS011;59659;41.520;23.794;2024-01-06T06:42:13;80.35;;;31.52;;
71814;SDS011;59659;41.520;23.794;2024-01-06T06:43:25;61.90;;;29.23;;
71814;SDS011;59659;41.520;23.794;2024-01-06T06:44:36;65.47;;;27.52;;
71814;SDS011;59659;41.520;23.794;2024-01-06T06:45:49;62.25;;;27.63;;
71814;SDS011;59659;41.520;23.794;2024-01-06T06:47:00;62.00;;;27.02;;
71814;SDS011;59659;41.520;23.794;2024-01-06T06:48:12;57.53;;;25.05;;
71814;SDS011;59659;41.520;23.794;2024-01-06T06:49:24;44.20;;;19.88;;
71814;SDS011;59659;41.520;23.794;2024-01-06T06:50:36;53.75;;;22.45;;
71814;SDS011;59659;41.520;23.794;2024-01-06T06:51:47;49.05;;;21.42;;
71814;SDS011;59659;41.520;23.794;2024-01-06T06:53:00;34.28;;;19.30;;
71814;SDS011;59659;41.520;23.794;2024-01-06T06:54:12;28.85;;;15.75;;